Farmington, Connecticut
Current Conditions -  °F | °C
As of 6:53 PM on Wednesday 28 Jan 2015 (Local Time) from KHFD Reporting Station
Clear Clear  
Wind Chill: 16°   Ceiling: Unl
Heat Index: 24°   Visibility: 10mi
Dew Point:   Wind: 7mph
Humidity: 40%   Direction: NA
Pressure: 30.18"   Gusts: NA
Location:  41.72°N, 72.83°W
Report Text: KHFD 282353Z VRB06KT 10SM CLR M04/M16 A3018 RMK AO2 SLP220 T10441161 11022 21050 53037
Loading
Personal Weather Stations






























Interactive Weather Map New forecast layout! Learn more

10-Day Weather Forecast

Advertisements
Track Severe Weather on mobile